createdAt,value
2022-08-28T00:00:00.672Z,101551.72
2022-08-28T00:02:27.634Z,101553.31
2022-08-28T00:04:54.747Z,101552.53
2022-08-28T00:07:21.295Z,101553.09
2022-08-28T00:09:47.760Z,101561.03
2022-08-28T00:12:14.504Z,101570.06
2022-08-28T00:14:41.189Z,101571.28
2022-08-28T00:17:07.839Z,101575.56
2022-08-28T00:19:38.500Z,101579.19
2022-08-28T00:22:06.543Z,101586.59
2022-08-28T00:24:33.891Z,101580.63
2022-08-28T00:27:18.970Z,101587.94
2022-08-28T00:29:45.446Z,101594.44
2022-08-28T00:32:11.944Z,101595.41
2022-08-28T00:34:39.050Z,101608.56
2022-08-28T00:37:06.334Z,101618.44
2022-08-28T00:39:32.961Z,101617.78
2022-08-28T00:41:59.495Z,101628.66
2022-08-28T00:44:28.020Z,101626.84
2022-08-28T00:46:56.856Z,101630.94
2022-08-28T00:49:29.531Z,101635.13
2022-08-28T00:52:15.951Z,101637.50
2022-08-28T00:54:58.387Z,101636.16
2022-08-28T00:57:37.147Z,101640.63
2022-08-28T01:00:08.108Z,101648.56
2022-08-28T01:02:34.674Z,101658.19
2022-08-28T01:05:01.227Z,101664.00
2022-08-28T01:07:28.430Z,101661.16
2022-08-28T01:09:55.845Z,101669.16
2022-08-28T01:12:28.344Z,101669.72
2022-08-28T01:15:01.179Z,101690.78
2022-08-28T01:17:31.175Z,101692.59
2022-08-28T01:20:02.996Z,101697.88
2022-08-28T01:22:37.261Z,101703.34
2022-08-28T01:25:08.127Z,101714.50
2022-08-28T01:27:34.790Z,101716.28
2022-08-28T01:30:01.509Z,101716.28
2022-08-28T01:32:30.383Z,101716.75
2022-08-28T01:34:56.855Z,101729.91
2022-08-28T01:37:23.311Z,101734.84
2022-08-28T01:39:50.114Z,101731.69
2022-08-28T01:42:17.253Z,101735.00
2022-08-28T01:44:43.703Z,101735.22
2022-08-28T01:47:10.171Z,101751.69
2022-08-28T01:49:36.951Z,101752.28
2022-08-28T01:52:04.664Z,101754.34
2022-08-28T01:54:31.592Z,101769.22
2022-08-28T01:56:58.504Z,101779.97
2022-08-28T01:59:25.022Z,101778.44
2022-08-28T02:01:51.559Z,101779.91
2022-08-28T02:04:18.092Z,101788.41
2022-08-28T02:06:44.623Z,101801.34
2022-08-28T02:09:14.747Z,101806.13
2022-08-28T02:11:46.432Z,101813.88
2022-08-28T02:14:13.680Z,101826.94
2022-08-28T02:16:40.214Z,101839.50
2022-08-28T02:19:06.670Z,101840.00
2022-08-28T02:21:33.319Z,101841.59
2022-08-28T02:23:59.896Z,101845.84
2022-08-28T02:26:28.343Z,101854.28
2022-08-28T02:28:54.963Z,101856.16
2022-08-28T02:31:21.438Z,101859.97
2022-08-28T02:33:48.122Z,101860.63
2022-08-28T02:36:15.808Z,101879.91
2022-08-28T02:38:44.567Z,101880.16
2022-08-28T02:41:12.080Z,101877.91
2022-08-28T02:43:39.580Z,101883.69
2022-08-28T02:46:07.138Z,101891.41
2022-08-28T02:48:36.403Z,101907.75
2022-08-28T02:51:07.185Z,101914.78
2022-08-28T02:53:33.732Z,101921.16
2022-08-28T02:56:02.869Z,101927.50
2022-08-28T02:58:32.236Z,101930.66
2022-08-28T03:01:01.601Z,101943.53
2022-08-28T03:03:31.167Z,101943.69
2022-08-28T03:05:59.872Z,101956.59
2022-08-28T03:08:27.461Z,101964.13
2022-08-28T03:10:54.336Z,101967.09
2022-08-28T03:13:26.807Z,101984.69
2022-08-28T03:15:55.685Z,101993.53
2022-08-28T03:18:24.384Z,102011.47
2022-08-28T03:20:52.310Z,102129.66
2022-08-28T03:23:27.816Z,102286.31
2022-08-28T03:25:58.222Z,102289.63
2022-08-28T03:28:26.941Z,102289.75
2022-08-28T03:30:54.276Z,102298.91
2022-08-28T03:33:21.084Z,102302.50
2022-08-28T03:35:47.840Z,102311.03
2022-08-28T03:38:14.536Z,102305.59
2022-08-28T03:40:44.710Z,102318.13
2022-08-28T03:43:14.952Z,102316.47
2022-08-28T03:45:41.589Z,102329.28
2022-08-28T03:48:08.215Z,102328.34
2022-08-28T03:50:36.018Z,102332.78
2022-08-28T03:53:02.783Z,102324.47
2022-08-28T03:55:29.363Z,102335.09
2022-08-28T03:57:55.930Z,102337.22
2022-08-28T04:00:22.463Z,102344.41
2022-08-28T04:02:48.925Z,102354.78
2022-08-28T04:05:16.664Z,102347.00
2022-08-28T04:07:43.542Z,102306.34
2022-08-28T04:10:10.312Z,102303.72
2022-08-28T04:12:37.124Z,102297.31
2022-08-28T04:15:06.424Z,102290.53
2022-08-28T04:17:33.562Z,102282.00
2022-08-28T04:20:00.020Z,102277.31
2022-08-28T04:22:26.475Z,102272.19
2022-08-28T04:24:53.655Z,102276.84
2022-08-28T04:27:20.336Z,102268.59
2022-08-28T04:29:48.159Z,102284.47
2022-08-28T04:32:14.746Z,102281.63
2022-08-28T04:34:41.263Z,102292.34
2022-08-28T04:37:07.865Z,102285.53
2022-08-28T04:39:34.450Z,102285.50
2022-08-28T04:42:00.990Z,102291.09
2022-08-28T04:44:27.658Z,102290.50
2022-08-28T04:46:54.331Z,102296.91
2022-08-28T04:49:22.834Z,102291.59
2022-08-28T04:51:52.443Z,102291.78
2022-08-28T04:54:18.976Z,102285.63
2022-08-28T04:56:46.248Z,102285.06
2022-08-28T04:59:13.305Z,102281.91
2022-08-28T05:01:42.490Z,102280.44
2022-08-28T05:04:11.247Z,102270.84
2022-08-28T05:06:43.364Z,102283.69
2022-08-28T05:09:09.826Z,102284.69
2022-08-28T05:11:36.294Z,102282.59
2022-08-28T05:14:05.620Z,102279.63
2022-08-28T05:16:34.464Z,102271.50
2022-08-28T05:19:02.116Z,102270.53
2022-08-28T05:21:28.658Z,102274.31
2022-08-28T05:23:57.711Z,102268.72
2022-08-28T05:26:26.859Z,102274.53
2022-08-28T05:28:55.831Z,102271.25
2022-08-28T05:31:26.524Z,102265.34
2022-08-28T05:33:53.742Z,102265.63
2022-08-28T05:36:22.614Z,102271.00
2022-08-28T05:38:50.606Z,102261.31
2022-08-28T05:41:24.351Z,102246.47
2022-08-28T05:43:52.876Z,102254.50
2022-08-28T05:46:20.607Z,102251.56
2022-08-28T05:48:49.321Z,102249.84
2022-08-28T05:51:22.370Z,102244.59
2022-08-28T05:53:49.824Z,102245.63
2022-08-28T05:56:22.321Z,102241.81
2022-08-28T05:58:48.966Z,102236.16
2022-08-28T06:01:19.450Z,102237.44
2022-08-28T06:03:55.748Z,102226.44
2022-08-28T06:06:24.551Z,102222.34
2022-08-28T06:08:56.361Z,102226.44
2022-08-28T06:11:30.396Z,102222.63
2022-08-28T06:14:03.054Z,102212.50
2022-08-28T06:16:31.656Z,102208.22
2022-08-28T06:18:58.633Z,102204.97
2022-08-28T06:21:25.099Z,102196.81
2022-08-28T06:23:51.915Z,102198.19
2022-08-28T06:26:18.781Z,102188.31
2022-08-28T06:28:45.400Z,102170.38
2022-08-28T06:31:24.348Z,102153.53
2022-08-28T06:33:57.570Z,102130.31
2022-08-28T06:36:28.814Z,102096.69
2022-08-28T06:38:58.358Z,102071.66
2022-08-28T06:41:26.481Z,102045.69
2022-08-28T06:43:53.474Z,102018.03
2022-08-28T06:46:20.089Z,101998.34
2022-08-28T06:48:46.602Z,101970.34
2022-08-28T06:51:14.042Z,101946.53
2022-08-28T06:53:42.889Z,101918.75
2022-08-28T06:56:26.157Z,101918.25
2022-08-28T06:58:55.800Z,101896.56
2022-08-28T07:01:32.607Z,101877.41
2022-08-28T07:04:01.735Z,101861.75
2022-08-28T07:06:32.306Z,101853.84
2022-08-28T07:08:58.925Z,101825.78
2022-08-28T07:11:28.839Z,101813.00
2022-08-28T07:13:56.342Z,101810.22
2022-08-28T07:16:26.584Z,101782.47
2022-08-28T07:18:53.429Z,101772.09
2022-08-28T07:21:20.659Z,101759.44
2022-08-28T07:23:48.002Z,101746.97
2022-08-28T07:26:17.675Z,101730.63
2022-08-28T07:28:45.414Z,101713.69
2022-08-28T07:31:21.050Z,101692.00
2022-08-28T07:33:47.686Z,101678.91
2022-08-28T07:36:29.881Z,101663.09
2022-08-28T07:38:58.395Z,101660.50
2022-08-28T07:41:29.535Z,101655.03
2022-08-28T07:44:15.111Z,101639.88
2022-08-28T07:46:41.793Z,101636.38
2022-08-28T07:49:09.397Z,101622.41
2022-08-28T07:51:36.410Z,101624.94
2022-08-28T07:54:04.002Z,101621.97
2022-08-28T07:56:32.036Z,101613.16
2022-08-28T07:59:00.584Z,101613.00
2022-08-28T08:01:30.770Z,101611.28
2022-08-28T08:04:01.592Z,101599.34
2022-08-28T08:06:33.778Z,101615.31
2022-08-28T08:09:02.368Z,101590.31
2022-08-28T08:11:32.585Z,101585.47
2022-08-28T08:14:04.672Z,101599.97
2022-08-28T08:16:41.443Z,101599.66
2022-08-28T08:19:09.978Z,101596.69
2022-08-28T08:21:37.435Z,101605.22
2022-08-28T08:24:04.564Z,101603.75
2022-08-28T08:26:31.479Z,101608.25
2022-08-28T08:28:59.556Z,101616.47
2022-08-28T08:31:35.406Z,101595.34
2022-08-28T08:34:04.543Z,101608.38
2022-08-28T08:36:33.531Z,101599.81
2022-08-28T08:39:00.802Z,101612.28
2022-08-28T08:41:32.733Z,101596.84
2022-08-28T08:44:33.371Z,101605.31
2022-08-28T08:47:14.982Z,101600.53
2022-08-28T08:49:50.249Z,101598.81
2022-08-28T08:52:35.643Z,101605.91
2022-08-28T08:55:15.390Z,101603.97
2022-08-28T08:57:44.289Z,101606.94
2022-08-28T09:00:16.034Z,101599.75
2022-08-28T09:03:05.067Z,101591.91
2022-08-28T09:06:02.196Z,101597.53
2022-08-28T09:08:42.931Z,101582.91
2022-08-28T09:11:36.191Z,101606.13
2022-08-28T09:14:14.300Z,101615.41
2022-08-28T09:16:46.744Z,101614.09
2022-08-28T09:19:18.827Z,101612.00
2022-08-28T09:21:46.682Z,101611.84
2022-08-28T09:24:28.917Z,101617.31
2022-08-28T09:27:04.098Z,101616.53
2022-08-28T09:29:32.930Z,101615.31
2022-08-28T09:32:22.493Z,101621.81
2022-08-28T09:35:24.603Z,101616.00
2022-08-28T09:37:51.211Z,101618.38
2022-08-28T09:40:23.253Z,101625.47
2022-08-28T09:43:31.388Z,101623.53
2022-08-28T09:46:09.733Z,101630.38
2022-08-28T09:48:44.484Z,101631.31
2022-08-28T09:51:26.791Z,101633.28
2022-08-28T09:53:56.459Z,101625.03
2022-08-28T09:56:28.993Z,101632.66
2022-08-28T09:59:17.842Z,101637.50
2022-08-28T10:01:51.524Z,101630.81
2022-08-28T10:04:48.677Z,101638.50
2022-08-28T10:07:38.169Z,101639.94
2022-08-28T10:10:18.189Z,101636.00
2022-08-28T10:12:53.951Z,101643.31
2022-08-28T10:15:49.528Z,101638.59
2022-08-28T10:18:17.393Z,101642.25
2022-08-28T10:20:55.596Z,101639.19
2022-08-28T10:23:22.495Z,101648.47
2022-08-28T10:26:07.672Z,101669.16
2022-08-28T10:29:15.550Z,101674.88
2022-08-28T10:31:59.212Z,101684.69
2022-08-28T10:34:38.840Z,101683.69
2022-08-28T10:37:32.907Z,101685.66
2022-08-28T10:40:04.590Z,101687.56
2022-08-28T10:43:10.009Z,101696.91
2022-08-28T10:45:38.920Z,101706.47
2022-08-28T10:48:17.532Z,101707.72
2022-08-28T10:50:51.452Z,101706.94
2022-08-28T10:53:49.775Z,101694.25
2022-08-28T10:56:21.516Z,101722.78
2022-08-28T10:58:53.240Z,101762.16
2022-08-28T11:01:41.886Z,101770.88
2022-08-28T11:04:25.509Z,101757.38
2022-08-28T11:07:01.137Z,101728.19
2022-08-28T11:09:35.290Z,101711.47
2022-08-28T11:12:07.464Z,101745.31
2022-08-28T11:14:39.329Z,101785.63
2022-08-28T11:17:27.893Z,101773.84
2022-08-28T11:20:24.733Z,101790.63
2022-08-28T11:22:54.247Z,101769.31
2022-08-28T11:25:33.104Z,101712.16
2022-08-28T11:28:14.968Z,101618.72
2022-08-28T11:30:45.684Z,101547.19
2022-08-28T11:33:47.771Z,101529.31
2022-08-28T11:36:20.287Z,101635.78
2022-08-28T11:38:55.765Z,101722.00
2022-08-28T11:41:27.610Z,101731.13
2022-08-28T11:44:09.324Z,101677.59
2022-08-28T11:46:44.164Z,101640.50
2022-08-28T11:49:29.152Z,101509.06
2022-08-28T11:52:25.109Z,101514.00
2022-08-28T11:55:29.798Z,101530.72
2022-08-28T12:00:46.351Z,101402.94
2022-08-28T12:03:33.182Z,101456.47
2022-08-28T12:06:01.279Z,101564.72
2022-08-28T12:08:46.949Z,101632.84
2022-08-28T12:11:41.708Z,101550.56
2022-08-28T12:14:33.281Z,101681.56
2022-08-28T12:16:59.685Z,101691.59
2022-08-28T12:19:30.979Z,101720.16
2022-08-28T12:21:57.606Z,101677.44
2022-08-28T12:24:24.757Z,101670.78
2022-08-28T12:26:54.697Z,101692.75
2022-08-28T12:29:38.423Z,101807.44
2022-08-28T12:32:24.662Z,101824.53
2022-08-28T12:35:00.627Z,101819.09
2022-08-28T12:37:42.930Z,101798.78
2022-08-28T12:40:21.783Z,101737.72
2022-08-28T12:43:00.910Z,101715.09
2022-08-28T12:45:39.234Z,101666.53
2022-08-28T12:48:18.404Z,101626.59
2022-08-28T12:50:45.039Z,101597.53
2022-08-28T12:53:16.344Z,101559.19
2022-08-28T12:55:45.406Z,101530.47
2022-08-28T12:58:34.539Z,101444.16
2022-08-28T13:01:09.627Z,101392.13
2022-08-28T13:03:49.779Z,101375.97
2022-08-28T13:06:24.044Z,101282.31
2022-08-28T13:09:01.499Z,101289.75
2022-08-28T13:11:35.018Z,101320.50
2022-08-28T13:14:01.791Z,101457.91
2022-08-28T13:16:46.622Z,101536.88
2022-08-28T13:19:27.239Z,101624.25
2022-08-28T13:22:00.487Z,101647.41
2022-08-28T13:24:35.556Z,101706.88
2022-08-28T13:27:16.194Z,101755.66
2022-08-28T13:29:57.120Z,101737.63
2022-08-28T13:32:29.476Z,101737.56
2022-08-28T13:35:09.651Z,101794.53
2022-08-28T13:37:49.398Z,101835.38
2022-08-28T13:43:16.071Z,101818.69
2022-08-28T13:45:45.285Z,101826.06
2022-08-28T13:48:14.203Z,101827.38
2022-08-28T13:50:45.674Z,101825.94
2022-08-28T13:53:15.890Z,101859.00
2022-08-28T13:55:44.468Z,101863.22
2022-08-28T13:58:11.468Z,101852.75
2022-08-28T14:00:43.159Z,101856.56
2022-08-28T14:03:28.285Z,101843.09
2022-08-28T14:05:56.105Z,101827.59
2022-08-28T14:08:22.821Z,101838.94
2022-08-28T14:10:49.436Z,101828.00
2022-08-28T14:13:16.339Z,101828.94
2022-08-28T14:15:42.860Z,101832.69
2022-08-28T14:18:09.402Z,101818.91
2022-08-28T14:20:38.440Z,101814.09
2022-08-28T14:23:05.142Z,101782.91
2022-08-28T14:25:37.121Z,101788.75
2022-08-28T14:28:05.619Z,101768.31
2022-08-28T14:30:32.387Z,101734.00
2022-08-28T14:32:58.885Z,101687.03
2022-08-28T14:35:26.087Z,101714.13
2022-08-28T14:37:52.544Z,101719.91
2022-08-28T14:40:19.146Z,101750.69
2022-08-28T14:42:45.744Z,101746.16
2022-08-28T14:45:12.213Z,101718.50
2022-08-28T14:47:39.256Z,101674.28
2022-08-28T14:50:06.462Z,101607.63
2022-08-28T14:52:33.102Z,101525.72
2022-08-28T14:54:59.721Z,101478.72
2022-08-28T14:57:26.449Z,101399.03
2022-08-28T14:59:52.909Z,101396.16
2022-08-28T15:02:19.475Z,101323.22
2022-08-28T15:04:45.937Z,101322.75
2022-08-28T15:07:12.880Z,101390.16
2022-08-28T15:09:41.677Z,101404.28
2022-08-28T15:12:08.988Z,101321.31
2022-08-28T15:14:35.934Z,101418.16
2022-08-28T15:17:04.323Z,101464.56
2022-08-28T15:19:31.284Z,101393.72
2022-08-28T15:21:59.131Z,101329.59
2022-08-28T15:24:28.739Z,101429.78
2022-08-28T15:26:55.280Z,101440.03
2022-08-28T15:29:21.799Z,101369.44
2022-08-28T15:31:50.298Z,101478.94
2022-08-28T15:34:25.427Z,101365.31
2022-08-28T15:36:55.044Z,101262.63
2022-08-28T15:39:42.890Z,101401.66
2022-08-28T15:42:10.283Z,101439.00
2022-08-28T15:44:37.386Z,101466.56
2022-08-28T15:47:04.908Z,101515.88
2022-08-28T15:49:36.071Z,101624.78
2022-08-28T15:52:05.631Z,101595.75
2022-08-28T15:54:32.474Z,101628.03
2022-08-28T15:56:59.252Z,101665.09
2022-08-28T15:59:25.789Z,101631.13
2022-08-28T16:02:14.349Z,101701.63
2022-08-28T16:04:40.938Z,101711.03
2022-08-28T16:07:07.414Z,101654.56
2022-08-28T16:09:34.111Z,101596.69
2022-08-28T16:12:01.687Z,101626.94
2022-08-28T16:14:28.270Z,101702.78
2022-08-28T16:16:54.940Z,101801.28
2022-08-28T16:19:21.397Z,101820.41
2022-08-28T16:21:48.084Z,101779.25
2022-08-28T16:24:14.600Z,101836.00
2022-08-28T16:26:41.063Z,101857.91
2022-08-28T16:29:07.667Z,101823.06
2022-08-28T16:31:34.421Z,101769.19
2022-08-28T16:34:02.919Z,101726.88
2022-08-28T16:36:30.075Z,101677.94
2022-08-28T16:39:03.446Z,101666.75
2022-08-28T16:41:31.891Z,101724.19
2022-08-28T16:43:58.478Z,101759.69
2022-08-28T16:46:26.275Z,101786.00
2022-08-28T16:48:53.298Z,101786.41
2022-08-28T16:51:20.483Z,101736.81
2022-08-28T16:53:47.708Z,101736.53
2022-08-28T16:56:17.123Z,101765.19
2022-08-28T16:58:45.028Z,101741.94
2022-08-28T17:01:13.362Z,101738.28
2022-08-28T17:03:40.444Z,101789.13
2022-08-28T17:06:12.600Z,101807.13
2022-08-28T17:08:39.411Z,101825.44
2022-08-28T17:11:06.615Z,101837.78
2022-08-28T17:13:34.280Z,101842.59
2022-08-28T17:16:00.947Z,101827.09
2022-08-28T17:18:27.475Z,101844.06
2022-08-28T17:21:12.690Z,101870.84
2022-08-28T17:23:39.303Z,101863.72
2022-08-28T17:26:06.040Z,101873.50
2022-08-28T17:28:32.638Z,101868.22
2022-08-28T17:30:59.328Z,101860.59
2022-08-28T17:33:25.820Z,101865.22
2022-08-28T17:35:55.066Z,101863.53
2022-08-28T17:38:21.849Z,101854.03
2022-08-28T17:40:48.319Z,101845.91
2022-08-28T17:43:14.825Z,101820.19
2022-08-28T17:45:41.386Z,101812.88
2022-08-28T17:48:08.303Z,101802.13
2022-08-28T17:50:34.823Z,101800.88
2022-08-28T17:53:01.392Z,101778.16
2022-08-28T17:55:29.282Z,101749.84
2022-08-28T17:57:55.755Z,101737.31
2022-08-28T18:00:22.505Z,101730.56
2022-08-28T18:02:51.906Z,101713.59
2022-08-28T18:05:18.659Z,101701.69
2022-08-28T18:07:45.227Z,101689.00
2022-08-28T18:10:12.669Z,101675.25
2022-08-28T18:12:40.479Z,101673.25
2022-08-28T18:15:09.753Z,101662.78
2022-08-28T18:17:38.115Z,101664.84
2022-08-28T18:20:06.789Z,101641.75
2022-08-28T18:22:33.640Z,101642.19
2022-08-28T18:25:02.615Z,101615.13
2022-08-28T18:27:31.438Z,101619.94
2022-08-28T18:29:59.028Z,101614.13
2022-08-28T18:32:25.652Z,101612.06
2022-08-28T18:34:52.584Z,101604.66
2022-08-28T18:37:19.106Z,101604.94
2022-08-28T18:39:45.643Z,101594.88
2022-08-28T18:42:14.747Z,101595.75
2022-08-28T18:44:41.228Z,101595.38
2022-08-28T18:47:07.945Z,101606.94
2022-08-28T18:49:34.583Z,101617.50
2022-08-28T18:52:01.547Z,101619.59
2022-08-28T18:54:29.554Z,101626.88
2022-08-28T18:57:01.389Z,101623.44
2022-08-28T18:59:32.653Z,101625.44
2022-08-28T19:02:00.919Z,101611.84
2022-08-28T19:04:27.492Z,101607.88
2022-08-28T19:06:53.969Z,101623.53
2022-08-28T19:09:20.903Z,101635.09
2022-08-28T19:11:48.006Z,101641.09
2022-08-28T19:14:14.966Z,101657.13
2022-08-28T19:16:41.640Z,101658.94
2022-08-28T19:19:08.232Z,101675.75
2022-08-28T19:21:35.845Z,101662.41
2022-08-28T19:24:03.143Z,101681.44
2022-08-28T19:26:29.605Z,101675.53
2022-08-28T19:28:56.537Z,101678.94
2022-08-28T19:31:24.373Z,101672.56
2022-08-28T19:33:51.083Z,101676.13
2022-08-28T19:36:18.626Z,101673.34
2022-08-28T19:38:45.580Z,101682.16
2022-08-28T19:41:13.736Z,101684.91
2022-08-28T19:43:43.211Z,101681.09
2022-08-28T19:46:18.367Z,101686.25
2022-08-28T19:48:46.714Z,101698.31
2022-08-28T19:51:17.749Z,101699.06
2022-08-28T19:53:56.717Z,101702.88
2022-08-28T19:56:26.934Z,101725.81
2022-08-28T19:58:54.733Z,101742.81
2022-08-28T20:01:21.321Z,101755.28
2022-08-28T20:03:47.975Z,101771.38
2022-08-28T20:06:14.432Z,101772.66
2022-08-28T20:08:41.098Z,101781.22
2022-08-28T20:11:07.835Z,101774.75
2022-08-28T20:13:35.500Z,101795.38
2022-08-28T20:16:05.359Z,101809.88
2022-08-28T20:18:33.420Z,101812.88
2022-08-28T20:21:00.137Z,101828.09
2022-08-28T20:23:26.803Z,101826.28
2022-08-28T20:25:53.459Z,101834.00
2022-08-28T20:28:20.097Z,101833.09
2022-08-28T20:30:46.963Z,101846.94
2022-08-28T20:33:13.700Z,101858.72
2022-08-28T20:35:40.476Z,101860.97
2022-08-28T20:38:07.254Z,101874.75
2022-08-28T20:40:34.260Z,101878.81
2022-08-28T20:43:00.800Z,101893.78
2022-08-28T20:45:28.121Z,101886.31
2022-08-28T20:47:54.969Z,101896.94
2022-08-28T20:50:21.507Z,101909.16
2022-08-28T20:52:48.134Z,101929.25
2022-08-28T20:55:15.015Z,101930.34
2022-08-28T20:57:41.617Z,101931.31
2022-08-28T21:00:09.850Z,101945.09
2022-08-28T21:02:36.539Z,101960.31
2022-08-28T21:05:03.598Z,101959.47
2022-08-28T21:07:30.293Z,101979.88
2022-08-28T21:10:06.261Z,101995.63
2022-08-28T21:12:38.689Z,102004.84
2022-08-28T21:15:07.621Z,102006.47
2022-08-28T21:17:34.407Z,102017.31
2022-08-28T21:20:05.225Z,102025.47
2022-08-28T21:22:35.155Z,102035.13
2022-08-28T21:25:02.540Z,102042.59
2022-08-28T21:27:29.559Z,102038.78
2022-08-28T21:29:58.284Z,102050.03
2022-08-28T21:32:26.304Z,102055.19
2022-08-28T21:34:53.108Z,102074.75
2022-08-28T21:37:19.752Z,102086.50
2022-08-28T21:39:46.252Z,102104.97
2022-08-28T21:42:12.972Z,102115.72
2022-08-28T21:44:40.756Z,102124.97
2022-08-28T21:47:14.763Z,102127.59
2022-08-28T21:49:41.407Z,102135.22
2022-08-28T21:52:07.913Z,102144.22
2022-08-28T21:54:34.486Z,102155.63
2022-08-28T21:57:00.986Z,102164.75
2022-08-28T21:59:30.330Z,102167.16
2022-08-28T22:02:04.080Z,102185.94
2022-08-28T22:04:31.033Z,102201.25
2022-08-28T22:06:57.564Z,102215.16
2022-08-28T22:09:24.067Z,102228.22
2022-08-28T22:11:50.535Z,102240.66
2022-08-28T22:14:17.104Z,102251.56
2022-08-28T22:16:44.758Z,102268.31
2022-08-28T22:19:11.271Z,102287.47
2022-08-28T22:21:56.251Z,102292.44
2022-08-28T22:24:23.522Z,102304.88
2022-08-28T22:26:50.107Z,102311.75
2022-08-28T22:29:23.886Z,102322.28
2022-08-28T22:31:50.364Z,102330.88
2022-08-28T22:34:16.844Z,102334.44
2022-08-28T22:36:43.368Z,102341.78
2022-08-28T22:39:10.050Z,102344.75
2022-08-28T22:41:37.348Z,102353.47
2022-08-28T22:44:04.481Z,102356.97
2022-08-28T22:46:31.056Z,102363.50
2022-08-28T22:48:57.592Z,102372.78
2022-08-28T22:51:24.124Z,102372.78
2022-08-28T22:53:50.741Z,102385.69
2022-08-28T22:56:17.613Z,102390.81
2022-08-28T22:58:44.895Z,102395.13
2022-08-28T23:01:19.708Z,102399.72
2022-08-28T23:03:46.966Z,102426.84
2022-08-28T23:06:13.887Z,102433.41
2022-08-28T23:08:40.532Z,102436.06
2022-08-28T23:11:07.198Z,102447.47
2022-08-28T23:13:34.008Z,102451.97
2022-08-28T23:16:01.783Z,102448.06
2022-08-28T23:18:29.863Z,102448.50
2022-08-28T23:20:57.272Z,102445.75
2022-08-28T23:23:24.404Z,102454.28
2022-08-28T23:25:51.150Z,102443.81
2022-08-28T23:28:18.819Z,102404.34
2022-08-28T23:30:48.545Z,102419.72
2022-08-28T23:33:23.588Z,102422.47
2022-08-28T23:35:51.681Z,102433.72
2022-08-28T23:38:18.174Z,102440.28
2022-08-28T23:40:44.637Z,102436.88
2022-08-28T23:43:11.814Z,102435.22
2022-08-28T23:45:42.392Z,102443.50
2022-08-28T23:48:09.643Z,102443.19
2022-08-28T23:50:40.334Z,102448.78
2022-08-28T23:53:08.636Z,102450.00
2022-08-28T23:55:36.506Z,102456.09
2022-08-28T23:58:04.017Z,102460.22
